createdAt,value
2018-08-20T00:00:17.939Z,100900.14
2018-08-20T00:02:44.960Z,100903.38
2018-08-20T00:05:11.971Z,100898.36
2018-08-20T00:07:39.000Z,100900.91
2018-08-20T00:10:08.701Z,100896.98
2018-08-20T00:12:35.756Z,100898.19
2018-08-20T00:15:02.826Z,100890.87
2018-08-20T00:17:29.928Z,100892.48
2018-08-20T00:19:56.944Z,100890.76
2018-08-20T00:22:24.140Z,100893.96
2018-08-20T00:25:02.871Z,100885.45
2018-08-20T00:27:30.843Z,100890.97
2018-08-20T00:29:57.840Z,100893.84
2018-08-20T00:32:24.831Z,100891.38
2018-08-20T00:34:51.828Z,100895.50
2018-08-20T00:37:18.842Z,100893.22
2018-08-20T00:39:45.927Z,100888.06
2018-08-20T00:42:13.008Z,100888.45
2018-08-20T00:44:39.985Z,100885.58
2018-08-20T00:47:07.039Z,100875.33
2018-08-20T00:49:34.037Z,100876.09
2018-08-20T00:52:01.058Z,100879.67
2018-08-20T00:54:28.031Z,100873.39
2018-08-20T00:56:55.012Z,100874.73
2018-08-20T00:59:22.005Z,100874.88
2018-08-20T01:01:49.036Z,100867.14
2018-08-20T01:04:16.014Z,100866.73
2018-08-20T01:06:43.057Z,100871.28
2018-08-20T01:09:10.075Z,100863.27
2018-08-20T01:11:37.358Z,100868.42
2018-08-20T01:14:04.432Z,100869.19
2018-08-20T01:16:31.420Z,100868.33
2018-08-20T01:18:58.495Z,100868.65
2018-08-20T01:21:25.787Z,100868.27
2018-08-20T01:23:52.843Z,100865.66
2018-08-20T01:26:19.923Z,100869.92
2018-08-20T01:28:46.926Z,100865.18
2018-08-20T01:31:13.916Z,100865.56
2018-08-20T01:33:41.057Z,100863.75
2018-08-20T01:36:08.057Z,100860.82
2018-08-20T01:38:35.133Z,100863.75
2018-08-20T01:41:02.131Z,100863.46
2018-08-20T01:43:29.224Z,100866.33
2018-08-20T01:45:56.218Z,100860.47
2018-08-20T01:48:23.390Z,100859.23
2018-08-20T01:50:50.365Z,100860.50
2018-08-20T01:53:17.386Z,100860.15
2018-08-20T01:55:44.384Z,100858.28
2018-08-20T01:58:11.397Z,100858.50
2018-08-20T02:00:38.410Z,100856.91
2018-08-20T02:03:05.453Z,100862.32
2018-08-20T02:05:32.555Z,100859.36
2018-08-20T02:07:59.679Z,100858.09
2018-08-20T02:10:26.953Z,100854.69
2018-08-20T02:12:54.028Z,100856.72
2018-08-20T02:15:21.231Z,100856.66
2018-08-20T02:17:48.267Z,100855.30
2018-08-20T02:20:15.277Z,100856.91
2018-08-20T02:22:42.777Z,100862.45
2018-08-20T02:25:09.890Z,100864.55
2018-08-20T02:27:36.909Z,100855.20
2018-08-20T02:30:04.657Z,100858.25
2018-08-20T02:32:31.669Z,100859.47
2018-08-20T02:34:58.679Z,100853.52
2018-08-20T02:37:30.326Z,100856.47
2018-08-20T02:39:58.296Z,100853.07
2018-08-20T02:42:25.361Z,100851.48
2018-08-20T02:44:52.354Z,100845.88
2018-08-20T02:47:19.364Z,100838.13
2018-08-20T02:49:46.360Z,100842.64
2018-08-20T02:52:13.390Z,100846.01
2018-08-20T02:54:40.381Z,100839.20
2018-08-20T02:57:07.373Z,100848.52
2018-08-20T02:59:34.446Z,100840.37
2018-08-20T03:02:01.469Z,100835.20
2018-08-20T03:04:28.479Z,100833.83
2018-08-20T03:06:55.565Z,100837.70
2018-08-20T03:09:22.581Z,100841.45
2018-08-20T03:11:49.580Z,100835.64
2018-08-20T03:14:16.622Z,100834.23
2018-08-20T03:16:43.617Z,100835.48
2018-08-20T03:19:10.620Z,100829.47
2018-08-20T03:21:37.680Z,100827.69
2018-08-20T03:24:06.429Z,100824.38
2018-08-20T03:26:33.519Z,100813.76
2018-08-20T03:29:00.747Z,100823.02
2018-08-20T03:31:27.849Z,100826.48
2018-08-20T03:33:54.844Z,100823.94
2018-08-20T03:36:21.961Z,100824.59
2018-08-20T03:38:49.091Z,100819.09
2018-08-20T03:41:16.138Z,100822.05
2018-08-20T03:43:43.164Z,100819.92
2018-08-20T03:46:10.167Z,100823.30
2018-08-20T03:48:37.176Z,100821.10
2018-08-20T03:51:04.225Z,100825.02
2018-08-20T03:53:31.208Z,100825.36
2018-08-20T03:55:58.242Z,100821.06
2018-08-20T03:58:25.344Z,100821.92
2018-08-20T04:00:52.354Z,100825.20
2018-08-20T04:03:19.350Z,100815.56
2018-08-20T04:05:46.449Z,100813.05
2018-08-20T04:08:13.523Z,100808.73
2018-08-20T04:10:40.511Z,100809.11
2018-08-20T04:13:07.629Z,100807.88
2018-08-20T04:15:34.699Z,100810.00
2018-08-20T04:18:01.797Z,100808.38
2018-08-20T04:20:28.811Z,100807.94
2018-08-20T04:22:55.877Z,100808.03
2018-08-20T04:25:22.900Z,100806.66
2018-08-20T04:27:49.892Z,100807.45
2018-08-20T04:30:16.972Z,100812.20
2018-08-20T04:32:44.310Z,100807.94
2018-08-20T04:35:11.404Z,100799.83
2018-08-20T04:37:38.483Z,100800.24
2018-08-20T04:40:05.874Z,100802.78
2018-08-20T04:42:32.983Z,100805.49
2018-08-20T04:44:59.970Z,100801.67
2018-08-20T04:47:27.116Z,100804.25
2018-08-20T04:49:54.206Z,100807.20
2018-08-20T04:52:21.106Z,100797.45
2018-08-20T04:54:48.088Z,100803.84
2018-08-20T04:57:15.325Z,100801.84
2018-08-20T04:59:42.299Z,100795.95
2018-08-20T05:02:09.291Z,100799.70
2018-08-20T05:04:36.276Z,100801.04
2018-08-20T05:07:03.349Z,100805.81
2018-08-20T05:09:30.362Z,100803.68
2018-08-20T05:11:57.394Z,100802.44
2018-08-20T05:14:24.573Z,100798.66
2018-08-20T05:16:51.564Z,100803.36
2018-08-20T05:19:18.667Z,100807.11
2018-08-20T05:21:45.661Z,100809.97
2018-08-20T05:24:12.647Z,100808.26
2018-08-20T05:26:39.660Z,100805.68
2018-08-20T05:29:06.819Z,100813.76
2018-08-20T05:31:33.824Z,100814.97
2018-08-20T05:34:00.977Z,100801.92
2018-08-20T05:36:27.992Z,100814.30
2018-08-20T05:38:55.063Z,100823.33
2018-08-20T05:41:22.060Z,100824.28
2018-08-20T05:43:49.148Z,100827.66
2018-08-20T05:46:16.143Z,100838.02
2018-08-20T05:48:43.203Z,100800.56
2018-08-20T05:51:10.203Z,100847.66
2018-08-20T05:53:37.361Z,100848.74
2018-08-20T05:56:04.396Z,100841.68
2018-08-20T05:58:31.468Z,100845.92
2018-08-20T06:00:58.487Z,100844.91
2018-08-20T06:03:25.567Z,100855.14
2018-08-20T06:05:52.620Z,100854.14
2018-08-20T06:08:19.703Z,100862.93
2018-08-20T06:10:46.802Z,100863.55
2018-08-20T06:13:14.029Z,100870.44
2018-08-20T06:15:41.028Z,100871.51
2018-08-20T06:18:08.037Z,100880.08
2018-08-20T06:20:35.072Z,100880.79
2018-08-20T06:23:02.055Z,100885.88
2018-08-20T06:25:29.163Z,100890.61
2018-08-20T06:27:56.184Z,100888.30
2018-08-20T06:30:23.263Z,100885.66
2018-08-20T06:32:50.320Z,100886.92
2018-08-20T06:35:17.356Z,100891.77
2018-08-20T06:37:44.348Z,100888.52
2018-08-20T06:40:13.689Z,100893.45
2018-08-20T06:42:40.724Z,100897.37
2018-08-20T06:45:11.689Z,100898.53
2018-08-20T06:47:39.011Z,100897.55
2018-08-20T06:50:06.024Z,100906.89
2018-08-20T06:52:33.267Z,100902.56
2018-08-20T06:55:00.259Z,100905.66
2018-08-20T06:57:27.267Z,100907.75
2018-08-20T06:59:54.280Z,100911.78
2018-08-20T07:02:21.283Z,100914.66
2018-08-20T07:04:48.416Z,100906.32
2018-08-20T07:07:15.497Z,100902.98
2018-08-20T07:09:42.557Z,100908.28
2018-08-20T07:12:09.568Z,100913.89
2018-08-20T07:14:36.591Z,100912.94
2018-08-20T07:17:03.619Z,100917.37
2018-08-20T07:19:30.595Z,100912.35
2018-08-20T07:21:57.808Z,100913.83
2018-08-20T07:24:24.800Z,100913.75
2018-08-20T07:26:51.818Z,100915.23
2018-08-20T07:29:35.735Z,100919.59
2018-08-20T07:32:03.049Z,100918.83
2018-08-20T07:34:30.059Z,100917.77
2018-08-20T07:36:57.261Z,100916.91
2018-08-20T07:39:24.331Z,100920.87
2018-08-20T07:41:51.383Z,100923.16
2018-08-20T07:44:18.468Z,100937.98
2018-08-20T07:46:45.451Z,100935.34
2018-08-20T07:49:17.059Z,100934.86
2018-08-20T07:51:44.151Z,100931.14
2018-08-20T07:54:11.161Z,100943.38
2018-08-20T07:56:38.147Z,100950.22
2018-08-20T07:59:05.217Z,100954.14
2018-08-20T08:01:32.232Z,100949.58
2018-08-20T08:03:59.324Z,100953.42
2018-08-20T08:06:26.391Z,100960.36
2018-08-20T08:08:53.460Z,100965.14
2018-08-20T08:11:20.528Z,100960.33
2018-08-20T08:13:47.720Z,100970.85
2018-08-20T08:16:14.852Z,100960.78
2018-08-20T08:18:41.930Z,100970.58
2018-08-20T08:21:08.989Z,100982.89
2018-08-20T08:23:36.099Z,100978.41
2018-08-20T08:26:03.204Z,100969.17
2018-08-20T08:28:30.253Z,100968.02
2018-08-20T08:30:57.345Z,100967.00
2018-08-20T08:33:24.624Z,100972.20
2018-08-20T08:35:51.704Z,100970.03
2018-08-20T08:38:18.831Z,100977.16
2018-08-20T08:40:46.244Z,100968.47
2018-08-20T08:43:13.397Z,100979.51
2018-08-20T08:45:40.886Z,100978.06
2018-08-20T08:48:07.965Z,100981.89
2018-08-20T08:50:35.029Z,100982.13
2018-08-20T08:53:02.211Z,100989.98
2018-08-20T08:55:29.317Z,100994.03
2018-08-20T08:57:56.472Z,100985.63
2018-08-20T09:00:23.588Z,100995.81
2018-08-20T09:02:50.699Z,101006.61
2018-08-20T09:05:18.736Z,101010.75
2018-08-20T09:07:45.816Z,101010.72
2018-08-20T09:10:13.254Z,101020.96
2018-08-20T09:12:40.548Z,101018.98
2018-08-20T09:15:13.428Z,101026.27
2018-08-20T09:17:40.755Z,101014.84
2018-08-20T09:20:09.907Z,101023.09
2018-08-20T09:22:36.952Z,101022.78
2018-08-20T09:25:04.748Z,101021.09
2018-08-20T09:27:31.983Z,101026.32
2018-08-20T09:30:01.906Z,101031.91
2018-08-20T09:32:30.070Z,101030.37
2018-08-20T09:34:58.161Z,101028.66
2018-08-20T09:37:25.437Z,101039.16
2018-08-20T09:39:52.813Z,101035.90
2018-08-20T09:42:20.307Z,101035.95
2018-08-20T09:44:47.749Z,101043.06
2018-08-20T09:47:15.112Z,101045.07
2018-08-20T09:49:49.318Z,101044.05
2018-08-20T09:52:16.592Z,101054.63
2018-08-20T09:54:43.877Z,101050.75
2018-08-20T09:57:12.207Z,101050.20
2018-08-20T09:59:41.003Z,101054.89
2018-08-20T10:02:08.185Z,101057.21
2018-08-20T10:04:35.187Z,101061.77
2018-08-20T10:07:02.311Z,101060.86
2018-08-20T10:09:29.337Z,101057.92
2018-08-20T10:11:56.316Z,101058.49
2018-08-20T10:14:23.370Z,101060.66
2018-08-20T10:16:50.385Z,101058.88
2018-08-20T10:19:17.392Z,101067.20
2018-08-20T10:21:44.416Z,101065.52
2018-08-20T10:24:11.482Z,101065.88
2018-08-20T10:26:38.479Z,101073.67
2018-08-20T10:29:05.580Z,101069.31
2018-08-20T10:31:32.583Z,101065.10
2018-08-20T10:33:59.574Z,101077.67
2018-08-20T10:36:26.695Z,101072.31
2018-08-20T10:38:53.691Z,101071.98
2018-08-20T10:41:20.677Z,101071.00
2018-08-20T10:43:47.759Z,101071.45
2018-08-20T10:46:20.417Z,101076.00
2018-08-20T10:48:47.528Z,101070.65
2018-08-20T10:51:14.631Z,101082.11
2018-08-20T10:53:41.679Z,101073.59
2018-08-20T10:56:09.564Z,101078.86
2018-08-20T10:58:36.596Z,101079.57
2018-08-20T11:01:03.668Z,101085.42
2018-08-20T11:03:30.904Z,101088.52
2018-08-20T11:05:57.972Z,101093.17
2018-08-20T11:08:25.009Z,101102.28
2018-08-20T11:10:52.040Z,101095.84
2018-08-20T11:13:19.043Z,101103.91
2018-08-20T11:15:46.032Z,101106.36
2018-08-20T11:18:13.292Z,101105.25
2018-08-20T11:20:40.272Z,101110.27
2018-08-20T11:23:07.283Z,101109.54
2018-08-20T11:25:34.305Z,101107.82
2018-08-20T11:28:13.775Z,101112.09
2018-08-20T11:30:46.260Z,101108.88
2018-08-20T11:33:13.383Z,101110.50
2018-08-20T11:35:40.393Z,101109.84
2018-08-20T11:38:07.403Z,101115.19
2018-08-20T11:44:04.566Z,101112.41
2018-08-20T11:46:31.900Z,101105.83
2018-08-20T11:48:59.185Z,101108.11
2018-08-20T11:51:26.179Z,101114.17
2018-08-20T11:53:53.560Z,101115.55
2018-08-20T11:56:21.328Z,101117.45
2018-08-20T11:58:48.404Z,101116.22
2018-08-20T12:01:15.431Z,101112.41
2018-08-20T12:03:42.648Z,101118.11
2018-08-20T12:06:09.735Z,101115.20
2018-08-20T12:08:36.760Z,101112.06
2018-08-20T12:11:03.824Z,101112.82
2018-08-20T12:13:30.865Z,101109.21
2018-08-20T12:15:57.867Z,101111.26
2018-08-20T12:18:24.867Z,101110.77
2018-08-20T12:20:51.992Z,101116.33
2018-08-20T12:23:19.031Z,101107.98
2018-08-20T12:25:46.088Z,101117.34
2018-08-20T12:28:13.127Z,101111.80
2018-08-20T12:30:40.068Z,101117.39
2018-08-20T12:33:07.492Z,101125.42
2018-08-20T12:35:34.508Z,101127.77
2018-08-20T12:38:01.514Z,101128.58
2018-08-20T12:40:28.596Z,101136.40
2018-08-20T12:42:55.567Z,101141.14
2018-08-20T12:45:22.543Z,101138.11
2018-08-20T12:47:49.588Z,101138.61
2018-08-20T12:50:16.575Z,101137.59
2018-08-20T12:52:43.575Z,101144.24
2018-08-20T12:55:10.576Z,101141.87
2018-08-20T12:57:37.659Z,101136.72
2018-08-20T13:00:05.671Z,101141.34
2018-08-20T13:02:32.654Z,101144.38
2018-08-20T13:04:59.882Z,101150.79
2018-08-20T13:07:26.900Z,101149.77
2018-08-20T13:09:53.881Z,101157.94
2018-08-20T13:12:20.975Z,101155.39
2018-08-20T13:14:48.032Z,101152.48
2018-08-20T13:17:15.837Z,101145.25
2018-08-20T13:19:42.823Z,101140.31
2018-08-20T13:22:09.795Z,101141.06
2018-08-20T13:24:36.806Z,101150.26
2018-08-20T13:27:04.235Z,101156.67
2018-08-20T13:29:31.317Z,101156.22
2018-08-20T13:32:05.159Z,101159.02
2018-08-20T13:34:32.238Z,101156.59
2018-08-20T13:36:59.291Z,101146.92
2018-08-20T13:39:26.275Z,101158.70
2018-08-20T13:41:53.483Z,101156.08
2018-08-20T13:44:20.528Z,101158.92
2018-08-20T13:46:47.639Z,101162.46
2018-08-20T13:49:14.812Z,101169.49
2018-08-20T13:51:41.960Z,101168.06
2018-08-20T13:54:08.999Z,101168.91
2018-08-20T13:56:36.177Z,101166.25
2018-08-20T13:59:03.267Z,101164.70
2018-08-20T14:01:30.319Z,101161.88
2018-08-20T14:03:57.491Z,101162.09
2018-08-20T14:06:24.609Z,101161.84
2018-08-20T14:08:52.557Z,101172.78
2018-08-20T14:11:20.669Z,101165.41
2018-08-20T14:13:48.694Z,101163.13
2018-08-20T14:16:16.659Z,101173.00
2018-08-20T14:18:44.968Z,101175.39
2018-08-20T14:21:14.434Z,101173.32
2018-08-20T14:23:44.515Z,101175.23
2018-08-20T14:26:12.924Z,101178.56
2018-08-20T14:28:40.883Z,101178.86
2018-08-20T14:31:09.725Z,101185.30
2018-08-20T14:33:38.038Z,101180.80
2018-08-20T14:36:05.496Z,101184.62
2018-08-20T14:38:33.074Z,101188.53
2018-08-20T14:41:00.317Z,101173.20
2018-08-20T14:43:27.373Z,101190.26
2018-08-20T14:46:00.293Z,101190.91
2018-08-20T14:48:27.384Z,101184.09
2018-08-20T14:50:54.437Z,101177.56
2018-08-20T14:53:21.495Z,101168.27
2018-08-20T14:55:48.492Z,101176.21
2018-08-20T14:58:15.494Z,101178.29
2018-08-20T15:00:42.595Z,101183.59
2018-08-20T15:03:09.734Z,101189.64
2018-08-20T15:05:36.729Z,101173.13
2018-08-20T15:08:03.832Z,101172.84
2018-08-20T15:10:30.929Z,101176.83
2018-08-20T15:12:57.892Z,101176.16
2018-08-20T15:15:24.955Z,101181.61
2018-08-20T15:17:51.996Z,101177.17
2018-08-20T15:20:19.228Z,101188.33
2018-08-20T15:22:46.304Z,101193.52
2018-08-20T15:25:13.421Z,101187.64
2018-08-20T15:27:40.603Z,101191.31
2018-08-20T15:30:07.711Z,101190.28
2018-08-20T15:32:34.750Z,101186.64
2018-08-20T15:35:01.855Z,101186.03
2018-08-20T15:37:28.927Z,101199.83
2018-08-20T15:39:56.213Z,101190.59
2018-08-20T15:42:23.248Z,101186.98
2018-08-20T15:44:50.244Z,101192.17
2018-08-20T15:47:17.593Z,101188.30
2018-08-20T15:49:44.564Z,101187.59
2018-08-20T15:52:11.632Z,101195.36
2018-08-20T15:54:38.631Z,101197.56
2018-08-20T15:57:05.661Z,101197.80
2018-08-20T15:59:33.191Z,101201.91
2018-08-20T16:02:00.223Z,101195.35
2018-08-20T16:04:27.283Z,101201.73
2018-08-20T16:06:54.367Z,101210.32
2018-08-20T16:09:21.351Z,101207.67
2018-08-20T16:11:48.523Z,101206.59
2018-08-20T16:14:15.537Z,101212.61
2018-08-20T16:16:42.602Z,101207.67
2018-08-20T16:19:09.729Z,101207.48
2018-08-20T16:21:36.788Z,101201.55
2018-08-20T16:24:03.859Z,101208.86
2018-08-20T16:26:30.874Z,101210.45
2018-08-20T16:28:57.970Z,101199.93
2018-08-20T16:31:25.214Z,101201.43
2018-08-20T16:33:52.207Z,101205.67
2018-08-20T16:36:19.274Z,101211.19
2018-08-20T16:38:46.329Z,101211.08
2018-08-20T16:41:13.318Z,101212.27
2018-08-20T16:43:40.340Z,101215.61
2018-08-20T16:46:07.431Z,101216.26
2018-08-20T16:48:34.484Z,101218.16
2018-08-20T16:51:01.568Z,101220.71
2018-08-20T16:53:28.619Z,101214.48
2018-08-20T16:55:55.716Z,101212.14
2018-08-20T16:58:22.782Z,101216.37
2018-08-20T17:00:49.874Z,101218.27
2018-08-20T17:03:17.088Z,101220.20
2018-08-20T17:05:45.764Z,101214.21
2018-08-20T17:08:17.648Z,101215.55
2018-08-20T17:10:44.923Z,101219.61
2018-08-20T17:13:12.007Z,101220.37
2018-08-20T17:15:39.020Z,101214.69
2018-08-20T17:18:06.092Z,101220.84
2018-08-20T17:20:33.204Z,101220.84
2018-08-20T17:23:12.145Z,101224.88
2018-08-20T17:25:39.191Z,101228.44
2018-08-20T17:28:06.190Z,101231.59
2018-08-20T17:30:33.199Z,101228.71
2018-08-20T17:33:00.436Z,101228.02
2018-08-20T17:35:27.441Z,101230.11
2018-08-20T17:37:59.108Z,101233.37
2018-08-20T17:40:26.269Z,101237.19
2018-08-20T17:42:53.256Z,101233.67
2018-08-20T17:45:20.296Z,101234.98
2018-08-20T17:47:47.302Z,101241.45
2018-08-20T17:50:28.300Z,101239.02
2018-08-20T17:52:56.083Z,101241.09
2018-08-20T17:55:23.084Z,101243.59
2018-08-20T17:57:50.089Z,101236.67
2018-08-20T18:00:29.871Z,101239.48
2018-08-20T18:02:56.932Z,101240.56
2018-08-20T18:05:24.715Z,101247.19
2018-08-20T18:07:52.653Z,101252.58
2018-08-20T18:10:19.666Z,101253.09
2018-08-20T18:12:46.660Z,101248.61
2018-08-20T18:15:14.902Z,101248.01
2018-08-20T18:17:42.224Z,101257.40
2018-08-20T18:20:09.224Z,101259.38
2018-08-20T18:22:36.251Z,101254.84
2018-08-20T18:25:03.367Z,101264.82
2018-08-20T18:27:34.522Z,101260.23
2018-08-20T18:30:01.852Z,101265.04
2018-08-20T18:32:28.857Z,101265.04
2018-08-20T18:34:55.861Z,101265.58
2018-08-20T18:37:22.893Z,101268.83
2018-08-20T18:39:54.610Z,101273.42
2018-08-20T18:42:21.737Z,101280.31
2018-08-20T18:44:49.368Z,101279.86
2018-08-20T18:47:17.647Z,101278.27
2018-08-20T18:49:51.198Z,101285.08
2018-08-20T18:52:18.823Z,101286.16
2018-08-20T18:54:48.128Z,101291.48
2018-08-20T18:57:16.275Z,101293.77
2018-08-20T18:59:43.306Z,101294.59
2018-08-20T19:02:17.896Z,101301.42
2018-08-20T19:04:47.656Z,101307.33
2018-08-20T19:07:15.013Z,101310.97
2018-08-20T19:09:46.337Z,101309.64
2018-08-20T19:12:13.403Z,101312.54
2018-08-20T19:14:40.423Z,101314.87
2018-08-20T19:17:28.880Z,101321.86
2018-08-20T19:20:00.872Z,101320.52
2018-08-20T19:22:30.077Z,101322.95
2018-08-20T19:24:57.115Z,101327.81
2018-08-20T19:27:29.811Z,101330.49
2018-08-20T19:29:57.700Z,101327.13
2018-08-20T19:32:24.741Z,101331.63
2018-08-20T19:34:51.780Z,101328.45
2018-08-20T19:37:18.852Z,101332.13
2018-08-20T19:39:46.101Z,101334.71
2018-08-20T19:42:19.059Z,101328.98
2018-08-20T19:44:46.089Z,101331.00
2018-08-20T19:47:13.110Z,101328.04
2018-08-20T19:49:40.631Z,101325.92
2018-08-20T19:52:07.874Z,101333.71
2018-08-20T19:54:34.977Z,101337.25
2018-08-20T19:57:02.016Z,101334.44
2018-08-20T19:59:34.943Z,101340.98
2018-08-20T20:02:02.143Z,101340.69
2018-08-20T20:04:29.181Z,101340.41
2018-08-20T20:06:56.190Z,101341.27
2018-08-20T20:09:23.208Z,101344.28
2018-08-20T20:11:52.017Z,101340.27
2018-08-20T20:14:19.095Z,101340.12
2018-08-20T20:16:51.595Z,101341.80
2018-08-20T20:19:18.702Z,101336.03
2018-08-20T20:21:46.207Z,101345.03
2018-08-20T20:24:13.600Z,101346.47
2018-08-20T20:26:41.027Z,101346.55
2018-08-20T20:29:08.989Z,101347.36
2018-08-20T20:31:36.848Z,101344.73
2018-08-20T20:34:03.863Z,101336.89
2018-08-20T20:36:31.659Z,101338.01
2018-08-20T20:38:58.718Z,101342.27
2018-08-20T20:41:26.497Z,101343.96
2018-08-20T20:43:53.933Z,101344.44
2018-08-20T20:46:20.975Z,101350.22
2018-08-20T20:48:48.296Z,101355.05
2018-08-20T20:51:15.348Z,101357.53
2018-08-20T20:53:42.368Z,101351.48
2018-08-20T20:56:09.384Z,101357.23
2018-08-20T20:58:37.826Z,101355.55
2018-08-20T21:01:07.213Z,101354.60
2018-08-20T21:03:34.603Z,101361.14
2018-08-20T21:06:02.293Z,101361.24
2018-08-20T21:09:01.486Z,101358.85
2018-08-20T21:11:28.639Z,101364.59
2018-08-20T21:13:55.666Z,101359.06
2018-08-20T21:16:23.932Z,101361.93
2018-08-20T21:18:52.121Z,101359.89
2018-08-20T21:21:19.309Z,101359.55
2018-08-20T21:23:46.324Z,101362.34
2018-08-20T21:26:13.354Z,101365.82
2018-08-20T21:28:46.478Z,101365.11
2018-08-20T21:31:14.595Z,101361.63
2018-08-20T21:33:42.278Z,101366.30
2018-08-20T21:36:09.944Z,101368.91
2018-08-20T21:38:36.944Z,101368.92
2018-08-20T21:41:04.038Z,101367.48
2018-08-20T21:43:47.372Z,101371.92
2018-08-20T21:46:14.753Z,101376.62
2018-08-20T21:48:42.184Z,101373.86
2018-08-20T21:52:14.799Z,101375.42
2018-08-20T21:54:41.899Z,101374.52
2018-08-20T21:57:08.968Z,101368.53
2018-08-20T21:59:35.981Z,101375.31
2018-08-20T22:02:03.108Z,101374.11
2018-08-20T22:04:30.297Z,101375.95
2018-08-20T22:06:58.408Z,101367.86
2018-08-20T22:09:26.361Z,101376.24
2018-08-20T22:11:55.955Z,101381.52
2018-08-20T22:14:23.107Z,101379.27
2018-08-20T22:16:57.225Z,101379.84
2018-08-20T22:19:24.281Z,101386.27
2018-08-20T22:21:51.274Z,101387.23
2018-08-20T22:24:18.788Z,101388.07
2018-08-20T22:26:51.425Z,101385.13
2018-08-20T22:29:18.723Z,101382.59
2018-08-20T22:31:51.685Z,101385.50
2018-08-20T22:34:18.687Z,101389.27
2018-08-20T22:36:50.257Z,101392.11
2018-08-20T22:39:17.782Z,101385.63
2018-08-20T22:41:44.876Z,101387.09
2018-08-20T22:44:11.983Z,101383.29
2018-08-20T22:46:39.296Z,101391.41
2018-08-20T22:49:06.478Z,101395.47
2018-08-20T22:51:33.827Z,101399.64
2018-08-20T22:54:01.356Z,101396.06
2018-08-20T22:56:31.062Z,101397.47
2018-08-20T22:59:00.455Z,101403.39
2018-08-20T23:01:27.827Z,101400.25
2018-08-20T23:03:54.848Z,101400.06
2018-08-20T23:06:21.954Z,101400.67
2018-08-20T23:08:49.665Z,101404.41
2018-08-20T23:11:31.744Z,101403.48
2018-08-20T23:13:59.115Z,101408.67
2018-08-20T23:16:26.144Z,101407.27
2018-08-20T23:18:53.172Z,101413.48
2018-08-20T23:21:20.291Z,101417.57
2018-08-20T23:23:47.272Z,101416.42
2018-08-20T23:26:14.342Z,101417.73
2018-08-20T23:28:41.588Z,101412.03
2018-08-20T23:31:08.709Z,101414.44
2018-08-20T23:33:37.639Z,101415.91
2018-08-20T23:36:04.949Z,101420.49
2018-08-20T23:38:32.331Z,101424.89
2018-08-20T23:40:59.483Z,101419.97
2018-08-20T23:43:27.089Z,101412.03
2018-08-20T23:45:54.531Z,101416.53
2018-08-20T23:48:21.758Z,101413.25
2018-08-20T23:50:58.971Z,101413.84
2018-08-20T23:53:26.945Z,101416.89
2018-08-20T23:55:53.983Z,101408.66
2018-08-20T23:58:21.620Z,101411.23
